sensor_id;sensor_type;location;lat;lon;timestamp;P1;durP1;ratioP1;P2;durP2;ratioP2
15567;SDS011;7885;42.596;23.044;2022-12-01T00:01:06;14.67;;;9.40;;
15567;SDS011;7885;42.596;23.044;2022-12-01T00:03:34;16.40;;;10.60;;
15567;SDS011;7885;42.596;23.044;2022-12-01T00:06:02;17.73;;;10.53;;
15567;SDS011;7885;42.596;23.044;2022-12-01T00:08:32;15.13;;;9.67;;
15567;SDS011;7885;42.596;23.044;2022-12-01T00:11:02;22.90;;;13.93;;
15567;SDS011;7885;42.596;23.044;2022-12-01T00:13:28;22.50;;;12.67;;
15567;SDS011;7885;42.596;23.044;2022-12-01T00:15:55;18.73;;;10.57;;
15567;SDS011;7885;42.596;23.044;2022-12-01T00:18:22;13.73;;;9.70;;
15567;SDS011;7885;42.596;23.044;2022-12-01T00:20:48;15.13;;;9.70;;
15567;SDS011;7885;42.596;23.044;2022-12-01T00:23:20;11.17;;;7.87;;
15567;SDS011;7885;42.596;23.044;2022-12-01T00:25:48;8.83;;;6.23;;
15567;SDS011;7885;42.596;23.044;2022-12-01T00:28:15;11.07;;;7.53;;
15567;SDS011;7885;42.596;23.044;2022-12-01T00:30:42;6.57;;;5.80;;
15567;SDS011;7885;42.596;23.044;2022-12-01T00:33:09;8.17;;;5.60;;
15567;SDS011;7885;42.596;23.044;2022-12-01T00:35:35;7.50;;;5.53;;
15567;SDS011;7885;42.596;23.044;2022-12-01T00:38:02;13.07;;;7.27;;
15567;SDS011;7885;42.596;23.044;2022-12-01T00:40:29;11.20;;;6.97;;
15567;SDS011;7885;42.596;23.044;2022-12-01T00:42:57;10.63;;;6.70;;
15567;SDS011;7885;42.596;23.044;2022-12-01T00:45:24;9.40;;;6.90;;
15567;SDS011;7885;42.596;23.044;2022-12-01T00:47:50;7.90;;;5.97;;
15567;SDS011;7885;42.596;23.044;2022-12-01T00:50:17;16.40;;;9.10;;
15567;SDS011;7885;42.596;23.044;2022-12-01T00:52:44;8.83;;;6.00;;
15567;SDS011;7885;42.596;23.044;2022-12-01T00:55:11;12.77;;;7.40;;
15567;SDS011;7885;42.596;23.044;2022-12-01T00:57:37;8.33;;;5.53;;
15567;SDS011;7885;42.596;23.044;2022-12-01T01:00:06;7.93;;;5.23;;
15567;SDS011;7885;42.596;23.044;2022-12-01T01:02:34;4.93;;;4.10;;
15567;SDS011;7885;42.596;23.044;2022-12-01T01:05:03;8.83;;;6.03;;
15567;SDS011;7885;42.596;23.044;2022-12-01T01:07:31;6.03;;;3.77;;
15567;SDS011;7885;42.596;23.044;2022-12-01T01:09:57;7.67;;;5.33;;
15567;SDS011;7885;42.596;23.044;2022-12-01T01:12:25;5.40;;;3.97;;
15567;SDS011;7885;42.596;23.044;2022-12-01T01:14:52;11.03;;;6.43;;
15567;SDS011;7885;42.596;23.044;2022-12-01T01:17:20;9.37;;;5.83;;
15567;SDS011;7885;42.596;23.044;2022-12-01T01:19:47;9.00;;;5.67;;
15567;SDS011;7885;42.596;23.044;2022-12-01T01:22:14;4.43;;;3.57;;
15567;SDS011;7885;42.596;23.044;2022-12-01T01:24:40;4.67;;;3.83;;
15567;SDS011;7885;42.596;23.044;2022-12-01T01:27:07;7.00;;;4.03;;
15567;SDS011;7885;42.596;23.044;2022-12-01T01:29:35;8.23;;;4.80;;
15567;SDS011;7885;42.596;23.044;2022-12-01T01:32:02;6.13;;;4.03;;
15567;SDS011;7885;42.596;23.044;2022-12-01T01:34:30;8.87;;;5.27;;
15567;SDS011;7885;42.596;23.044;2022-12-01T01:36:57;3.50;;;2.80;;
15567;SDS011;7885;42.596;23.044;2022-12-01T01:39:24;4.27;;;3.20;;
15567;SDS011;7885;42.596;23.044;2022-12-01T01:41:51;4.50;;;3.43;;
15567;SDS011;7885;42.596;23.044;2022-12-01T01:47:21;4.10;;;2.53;;
15567;SDS011;7885;42.596;23.044;2022-12-01T01:49:53;3.00;;;2.50;;
15567;SDS011;7885;42.596;23.044;2022-12-01T01:52:21;3.10;;;2.50;;
15567;SDS011;7885;42.596;23.044;2022-12-01T01:54:50;3.37;;;2.53;;
15567;SDS011;7885;42.596;23.044;2022-12-01T02:00:41;3.80;;;3.30;;
15567;SDS011;7885;42.596;23.044;2022-12-01T02:03:11;4.80;;;3.60;;
15567;SDS011;7885;42.596;23.044;2022-12-01T02:05:42;4.63;;;3.60;;
15567;SDS011;7885;42.596;23.044;2022-12-01T02:08:09;4.57;;;3.43;;
15567;SDS011;7885;42.596;23.044;2022-12-01T02:14:00;4.23;;;2.90;;
15567;SDS011;7885;42.596;23.044;2022-12-01T02:16:36;7.27;;;3.87;;
15567;SDS011;7885;42.596;23.044;2022-12-01T02:19:15;7.47;;;4.53;;
15567;SDS011;7885;42.596;23.044;2022-12-01T02:22:04;7.47;;;5.77;;
15567;SDS011;7885;42.596;23.044;2022-12-01T02:28:01;5.70;;;4.23;;
15567;SDS011;7885;42.596;23.044;2022-12-01T02:30:44;4.63;;;3.70;;
15567;SDS011;7885;42.596;23.044;2022-12-01T02:33:16;5.13;;;3.83;;
15567;SDS011;7885;42.596;23.044;2022-12-01T02:35:50;4.37;;;3.60;;
15567;SDS011;7885;42.596;23.044;2022-12-01T02:38:23;6.37;;;4.17;;
15567;SDS011;7885;42.596;23.044;2022-12-01T02:40:55;9.27;;;5.83;;
15567;SDS011;7885;42.596;23.044;2022-12-01T02:43:28;8.97;;;5.63;;
15567;SDS011;7885;42.596;23.044;2022-12-01T02:46:01;5.23;;;3.30;;
15567;SDS011;7885;42.596;23.044;2022-12-01T02:48:33;4.43;;;2.80;;
15567;SDS011;7885;42.596;23.044;2022-12-01T02:51:05;7.77;;;4.10;;
15567;SDS011;7885;42.596;23.044;2022-12-01T02:53:36;5.13;;;2.60;;
15567;SDS011;7885;42.596;23.044;2022-12-01T02:56:04;4.50;;;2.77;;
15567;SDS011;7885;42.596;23.044;2022-12-01T02:58:32;3.53;;;2.30;;
15567;SDS011;7885;42.596;23.044;2022-12-01T03:07:21;2.40;;;1.87;;
15567;SDS011;7885;42.596;23.044;2022-12-01T03:10:03;2.27;;;2.07;;
15567;SDS011;7885;42.596;23.044;2022-12-01T03:12:41;4.00;;;2.43;;
15567;SDS011;7885;42.596;23.044;2022-12-01T03:15:24;6.83;;;4.23;;
15567;SDS011;7885;42.596;23.044;2022-12-01T03:18:00;6.87;;;4.03;;
15567;SDS011;7885;42.596;23.044;2022-12-01T03:20:34;4.93;;;3.07;;
15567;SDS011;7885;42.596;23.044;2022-12-01T03:23:05;3.27;;;2.83;;
15567;SDS011;7885;42.596;23.044;2022-12-01T03:25:35;9.60;;;5.53;;
15567;SDS011;7885;42.596;23.044;2022-12-01T03:28:04;5.93;;;3.20;;
15567;SDS011;7885;42.596;23.044;2022-12-01T03:30:34;7.27;;;3.77;;
15567;SDS011;7885;42.596;23.044;2022-12-01T03:33:04;9.40;;;4.47;;
15567;SDS011;7885;42.596;23.044;2022-12-01T03:35:35;7.80;;;4.23;;
15567;SDS011;7885;42.596;23.044;2022-12-01T03:38:09;9.90;;;5.23;;
15567;SDS011;7885;42.596;23.044;2022-12-01T03:40:40;7.60;;;4.17;;
15567;SDS011;7885;42.596;23.044;2022-12-01T03:43:10;7.57;;;3.80;;
15567;SDS011;7885;42.596;23.044;2022-12-01T03:45:42;6.17;;;3.73;;
15567;SDS011;7885;42.596;23.044;2022-12-01T03:48:16;3.43;;;2.50;;
15567;SDS011;7885;42.596;23.044;2022-12-01T03:50:45;4.57;;;2.67;;
15567;SDS011;7885;42.596;23.044;2022-12-01T03:53:20;6.53;;;4.70;;
15567;SDS011;7885;42.596;23.044;2022-12-01T03:55:54;4.87;;;3.57;;
15567;SDS011;7885;42.596;23.044;2022-12-01T03:58:29;5.83;;;3.20;;
15567;SDS011;7885;42.596;23.044;2022-12-01T04:01:00;8.23;;;5.60;;
15567;SDS011;7885;42.596;23.044;2022-12-01T04:03:28;4.13;;;2.90;;
15567;SDS011;7885;42.596;23.044;2022-12-01T04:05:55;4.30;;;3.00;;
15567;SDS011;7885;42.596;23.044;2022-12-01T04:08:23;4.20;;;2.90;;
15567;SDS011;7885;42.596;23.044;2022-12-01T04:10:49;4.60;;;3.60;;
15567;SDS011;7885;42.596;23.044;2022-12-01T04:13:16;3.57;;;2.47;;
15567;SDS011;7885;42.596;23.044;2022-12-01T04:15:47;3.13;;;2.60;;
15567;SDS011;7885;42.596;23.044;2022-12-01T04:18:14;2.83;;;2.53;;
15567;SDS011;7885;42.596;23.044;2022-12-01T04:20:43;4.30;;;3.50;;
15567;SDS011;7885;42.596;23.044;2022-12-01T04:23:10;5.43;;;3.93;;
15567;SDS011;7885;42.596;23.044;2022-12-01T04:25:58;3.77;;;3.30;;
15567;SDS011;7885;42.596;23.044;2022-12-01T04:28:25;5.07;;;3.70;;
15567;SDS011;7885;42.596;23.044;2022-12-01T04:30:52;6.27;;;4.53;;
15567;SDS011;7885;42.596;23.044;2022-12-01T04:33:18;5.57;;;4.80;;
15567;SDS011;7885;42.596;23.044;2022-12-01T04:35:46;5.77;;;4.80;;
15567;SDS011;7885;42.596;23.044;2022-12-01T04:38:21;7.40;;;6.17;;
15567;SDS011;7885;42.596;23.044;2022-12-01T04:44:09;3.67;;;3.37;;
15567;SDS011;7885;42.596;23.044;2022-12-01T04:46:36;22.53;;;20.23;;
15567;SDS011;7885;42.596;23.044;2022-12-01T04:49:03;4.97;;;4.30;;
15567;SDS011;7885;42.596;23.044;2022-12-01T04:51:32;4.10;;;3.33;;
15567;SDS011;7885;42.596;23.044;2022-12-01T04:54:00;8.00;;;6.20;;
15567;SDS011;7885;42.596;23.044;2022-12-01T04:56:27;5.47;;;4.47;;
15567;SDS011;7885;42.596;23.044;2022-12-01T04:58:54;4.70;;;4.00;;
15567;SDS011;7885;42.596;23.044;2022-12-01T05:01:23;6.30;;;4.30;;
15567;SDS011;7885;42.596;23.044;2022-12-01T05:03:49;5.87;;;3.63;;
15567;SDS011;7885;42.596;23.044;2022-12-01T05:06:17;5.27;;;3.53;;
15567;SDS011;7885;42.596;23.044;2022-12-01T05:08:46;9.50;;;5.97;;
15567;SDS011;7885;42.596;23.044;2022-12-01T05:11:14;4.73;;;3.67;;
15567;SDS011;7885;42.596;23.044;2022-12-01T05:13:42;5.40;;;4.73;;
15567;SDS011;7885;42.596;23.044;2022-12-01T05:16:11;3.30;;;2.97;;
15567;SDS011;7885;42.596;23.044;2022-12-01T05:18:40;2.37;;;2.10;;
15567;SDS011;7885;42.596;23.044;2022-12-01T05:21:08;6.00;;;5.30;;
15567;SDS011;7885;42.596;23.044;2022-12-01T05:23:35;8.43;;;7.00;;
15567;SDS011;7885;42.596;23.044;2022-12-01T05:26:05;8.50;;;5.83;;
15567;SDS011;7885;42.596;23.044;2022-12-01T05:28:33;4.47;;;3.30;;
15567;SDS011;7885;42.596;23.044;2022-12-01T05:31:00;3.53;;;3.23;;
15567;SDS011;7885;42.596;23.044;2022-12-01T05:33:27;4.57;;;3.67;;
15567;SDS011;7885;42.596;23.044;2022-12-01T05:35:54;5.27;;;3.27;;
15567;SDS011;7885;42.596;23.044;2022-12-01T05:38:21;2.10;;;1.90;;
15567;SDS011;7885;42.596;23.044;2022-12-01T05:40:48;3.20;;;2.87;;
15567;SDS011;7885;42.596;23.044;2022-12-01T05:43:17;2.70;;;2.30;;
15567;SDS011;7885;42.596;23.044;2022-12-01T05:45:44;3.07;;;2.80;;
15567;SDS011;7885;42.596;23.044;2022-12-01T05:48:11;3.63;;;2.50;;
15567;SDS011;7885;42.596;23.044;2022-12-01T05:50:38;2.40;;;2.20;;
15567;SDS011;7885;42.596;23.044;2022-12-01T05:53:05;2.47;;;2.27;;
15567;SDS011;7885;42.596;23.044;2022-12-01T05:55:32;5.20;;;3.20;;
15567;SDS011;7885;42.596;23.044;2022-12-01T05:57:59;2.37;;;1.60;;
15567;SDS011;7885;42.596;23.044;2022-12-01T06:00:27;1.80;;;1.70;;
15567;SDS011;7885;42.596;23.044;2022-12-01T06:02:54;3.10;;;1.70;;
15567;SDS011;7885;42.596;23.044;2022-12-01T06:05:21;2.37;;;1.50;;
15567;SDS011;7885;42.596;23.044;2022-12-01T06:07:48;1.37;;;1.20;;
15567;SDS011;7885;42.596;23.044;2022-12-01T06:10:15;2.70;;;1.60;;
15567;SDS011;7885;42.596;23.044;2022-12-01T06:12:42;2.93;;;1.40;;
15567;SDS011;7885;42.596;23.044;2022-12-01T06:15:09;1.60;;;1.40;;
15567;SDS011;7885;42.596;23.044;2022-12-01T06:17:39;4.07;;;1.20;;
15567;SDS011;7885;42.596;23.044;2022-12-01T06:20:06;2.13;;;1.30;;
15567;SDS011;7885;42.596;23.044;2022-12-01T06:22:34;2.33;;;1.90;;
15567;SDS011;7885;42.596;23.044;2022-12-01T06:25:01;2.37;;;1.80;;
15567;SDS011;7885;42.596;23.044;2022-12-01T06:27:28;3.00;;;1.60;;
15567;SDS011;7885;42.596;23.044;2022-12-01T06:29:55;2.63;;;1.20;;
15567;SDS011;7885;42.596;23.044;2022-12-01T06:32:21;1.80;;;1.63;;
15567;SDS011;7885;42.596;23.044;2022-12-01T06:34:50;1.63;;;1.37;;
15567;SDS011;7885;42.596;23.044;2022-12-01T06:37:16;6.07;;;1.90;;
15567;SDS011;7885;42.596;23.044;2022-12-01T06:39:43;3.87;;;1.60;;
15567;SDS011;7885;42.596;23.044;2022-12-01T06:42:10;6.00;;;2.30;;
15567;SDS011;7885;42.596;23.044;2022-12-01T06:44:37;5.43;;;2.30;;
15567;SDS011;7885;42.596;23.044;2022-12-01T06:47:03;6.70;;;2.43;;
15567;SDS011;7885;42.596;23.044;2022-12-01T06:49:32;10.67;;;5.10;;
15567;SDS011;7885;42.596;23.044;2022-12-01T06:52:00;5.97;;;2.63;;
15567;SDS011;7885;42.596;23.044;2022-12-01T06:57:48;2.93;;;1.40;;
15567;SDS011;7885;42.596;23.044;2022-12-01T07:00:15;2.30;;;1.40;;
15567;SDS011;7885;42.596;23.044;2022-12-01T07:02:42;4.13;;;2.00;;
15567;SDS011;7885;42.596;23.044;2022-12-01T07:05:09;3.43;;;2.30;;
15567;SDS011;7885;42.596;23.044;2022-12-01T07:07:37;4.10;;;1.77;;
15567;SDS011;7885;42.596;23.044;2022-12-01T07:10:05;4.17;;;1.70;;
15567;SDS011;7885;42.596;23.044;2022-12-01T07:12:33;1.60;;;1.50;;
15567;SDS011;7885;42.596;23.044;2022-12-01T07:15:00;2.30;;;1.43;;
15567;SDS011;7885;42.596;23.044;2022-12-01T07:17:27;4.17;;;3.10;;
15567;SDS011;7885;42.596;23.044;2022-12-01T07:19:54;3.10;;;2.80;;
15567;SDS011;7885;42.596;23.044;2022-12-01T07:22:21;3.50;;;3.20;;
15567;SDS011;7885;42.596;23.044;2022-12-01T07:24:49;3.23;;;2.67;;
15567;SDS011;7885;42.596;23.044;2022-12-01T07:27:16;3.83;;;2.90;;
15567;SDS011;7885;42.596;23.044;2022-12-01T07:29:43;3.17;;;2.77;;
15567;SDS011;7885;42.596;23.044;2022-12-01T07:32:10;5.80;;;3.33;;
15567;SDS011;7885;42.596;23.044;2022-12-01T07:34:36;4.53;;;2.83;;
15567;SDS011;7885;42.596;23.044;2022-12-01T07:37:03;3.77;;;2.40;;
15567;SDS011;7885;42.596;23.044;2022-12-01T07:39:30;2.83;;;1.80;;
15567;SDS011;7885;42.596;23.044;2022-12-01T07:41:58;5.53;;;3.17;;
15567;SDS011;7885;42.596;23.044;2022-12-01T07:44:25;8.23;;;2.93;;
15567;SDS011;7885;42.596;23.044;2022-12-01T07:46:51;9.60;;;3.20;;
15567;SDS011;7885;42.596;23.044;2022-12-01T07:49:19;6.50;;;2.87;;
15567;SDS011;7885;42.596;23.044;2022-12-01T07:51:46;5.57;;;2.60;;
15567;SDS011;7885;42.596;23.044;2022-12-01T07:54:13;7.90;;;3.27;;
15567;SDS011;7885;42.596;23.044;2022-12-01T07:56:41;6.00;;;3.80;;
15567;SDS011;7885;42.596;23.044;2022-12-01T07:59:09;5.83;;;3.60;;
15567;SDS011;7885;42.596;23.044;2022-12-01T08:01:36;4.60;;;3.23;;
15567;SDS011;7885;42.596;23.044;2022-12-01T08:04:03;4.40;;;2.10;;
15567;SDS011;7885;42.596;23.044;2022-12-01T08:06:30;4.60;;;2.40;;
15567;SDS011;7885;42.596;23.044;2022-12-01T08:08:57;9.30;;;2.90;;
15567;SDS011;7885;42.596;23.044;2022-12-01T08:11:24;2.10;;;1.53;;
15567;SDS011;7885;42.596;23.044;2022-12-01T08:13:53;3.90;;;1.90;;
15567;SDS011;7885;42.596;23.044;2022-12-01T08:16:22;3.53;;;2.20;;
15567;SDS011;7885;42.596;23.044;2022-12-01T08:18:50;3.23;;;2.03;;
15567;SDS011;7885;42.596;23.044;2022-12-01T08:21:17;4.37;;;2.60;;
15567;SDS011;7885;42.596;23.044;2022-12-01T08:23:46;7.30;;;2.60;;
15567;SDS011;7885;42.596;23.044;2022-12-01T08:26:13;2.73;;;2.33;;
15567;SDS011;7885;42.596;23.044;2022-12-01T08:28:41;3.80;;;3.27;;
15567;SDS011;7885;42.596;23.044;2022-12-01T08:31:09;5.00;;;3.10;;
15567;SDS011;7885;42.596;23.044;2022-12-01T08:33:39;3.30;;;3.00;;
15567;SDS011;7885;42.596;23.044;2022-12-01T08:36:05;7.67;;;4.40;;
15567;SDS011;7885;42.596;23.044;2022-12-01T08:38:33;7.17;;;4.07;;
15567;SDS011;7885;42.596;23.044;2022-12-01T08:41:00;3.00;;;2.47;;
15567;SDS011;7885;42.596;23.044;2022-12-01T08:43:27;7.30;;;3.83;;
15567;SDS011;7885;42.596;23.044;2022-12-01T08:45:56;9.80;;;6.20;;
15567;SDS011;7885;42.596;23.044;2022-12-01T08:48:23;4.70;;;2.70;;
15567;SDS011;7885;42.596;23.044;2022-12-01T08:51:00;2.93;;;2.50;;
15567;SDS011;7885;42.596;23.044;2022-12-01T08:53:28;3.50;;;2.50;;
15567;SDS011;7885;42.596;23.044;2022-12-01T08:55:57;5.07;;;2.83;;
15567;SDS011;7885;42.596;23.044;2022-12-01T08:58:25;2.77;;;2.50;;
15567;SDS011;7885;42.596;23.044;2022-12-01T09:00:52;4.67;;;2.97;;
15567;SDS011;7885;42.596;23.044;2022-12-01T09:03:19;3.00;;;2.70;;
15567;SDS011;7885;42.596;23.044;2022-12-01T09:05:46;3.00;;;2.60;;
15567;SDS011;7885;42.596;23.044;2022-12-01T09:08:14;4.43;;;2.80;;
15567;SDS011;7885;42.596;23.044;2022-12-01T09:11:00;4.00;;;2.70;;
15567;SDS011;7885;42.596;23.044;2022-12-01T09:13:29;4.60;;;3.67;;
15567;SDS011;7885;42.596;23.044;2022-12-01T09:15:56;3.33;;;3.03;;
15567;SDS011;7885;42.596;23.044;2022-12-01T09:18:24;3.10;;;2.80;;
15567;SDS011;7885;42.596;23.044;2022-12-01T09:20:51;6.10;;;5.50;;
15567;SDS011;7885;42.596;23.044;2022-12-01T09:23:19;5.50;;;5.00;;
15567;SDS011;7885;42.596;23.044;2022-12-01T09:25:47;6.60;;;6.00;;
15567;SDS011;7885;42.596;23.044;2022-12-01T09:28:14;6.97;;;5.57;;
15567;SDS011;7885;42.596;23.044;2022-12-01T09:30:42;7.00;;;6.30;;
15567;SDS011;7885;42.596;23.044;2022-12-01T09:33:08;5.10;;;4.60;;
15567;SDS011;7885;42.596;23.044;2022-12-01T09:35:35;7.07;;;6.37;;
15567;SDS011;7885;42.596;23.044;2022-12-01T09:38:02;9.77;;;7.30;;
15567;SDS011;7885;42.596;23.044;2022-12-01T09:40:32;8.17;;;6.70;;
15567;SDS011;7885;42.596;23.044;2022-12-01T09:43:01;8.40;;;6.20;;
15567;SDS011;7885;42.596;23.044;2022-12-01T09:45:30;8.40;;;6.10;;
15567;SDS011;7885;42.596;23.044;2022-12-01T09:48:01;9.27;;;7.13;;
15567;SDS011;7885;42.596;23.044;2022-12-01T09:50:29;11.30;;;8.17;;
15567;SDS011;7885;42.596;23.044;2022-12-01T09:52:58;8.43;;;7.17;;
15567;SDS011;7885;42.596;23.044;2022-12-01T10:02:19;9.37;;;7.03;;
15567;SDS011;7885;42.596;23.044;2022-12-01T10:04:51;9.37;;;7.50;;
15567;SDS011;7885;42.596;23.044;2022-12-01T10:07:22;7.57;;;5.53;;
15567;SDS011;7885;42.596;23.044;2022-12-01T10:09:53;13.10;;;8.03;;
15567;SDS011;7885;42.596;23.044;2022-12-01T10:12:23;8.37;;;6.50;;
15567;SDS011;7885;42.596;23.044;2022-12-01T10:14:53;7.60;;;5.60;;
15567;SDS011;7885;42.596;23.044;2022-12-01T10:17:29;14.83;;;8.10;;
15567;SDS011;7885;42.596;23.044;2022-12-01T10:20:02;12.13;;;9.63;;
15567;SDS011;7885;42.596;23.044;2022-12-01T10:23:06;6.60;;;5.70;;
15567;SDS011;7885;42.596;23.044;2022-12-01T10:25:43;12.10;;;8.63;;
15567;SDS011;7885;42.596;23.044;2022-12-01T10:28:23;8.00;;;6.63;;
15567;SDS011;7885;42.596;23.044;2022-12-01T10:31:06;8.07;;;6.80;;
15567;SDS011;7885;42.596;23.044;2022-12-01T10:33:42;13.47;;;9.30;;
15567;SDS011;7885;42.596;23.044;2022-12-01T10:36:16;9.60;;;7.73;;
15567;SDS011;7885;42.596;23.044;2022-12-01T10:38:43;7.40;;;6.00;;
15567;SDS011;7885;42.596;23.044;2022-12-01T10:41:10;6.37;;;4.80;;
15567;SDS011;7885;42.596;23.044;2022-12-01T10:43:41;7.33;;;5.00;;
15567;SDS011;7885;42.596;23.044;2022-12-01T10:52:56;7.27;;;5.47;;
15567;SDS011;7885;42.596;23.044;2022-12-01T10:55:24;10.33;;;5.17;;
15567;SDS011;7885;42.596;23.044;2022-12-01T10:57:53;9.93;;;5.10;;
15567;SDS011;7885;42.596;23.044;2022-12-01T11:00:22;4.73;;;3.30;;
15567;SDS011;7885;42.596;23.044;2022-12-01T11:02:51;4.13;;;3.73;;
15567;SDS011;7885;42.596;23.044;2022-12-01T11:05:19;4.10;;;2.70;;
15567;SDS011;7885;42.596;23.044;2022-12-01T11:07:49;3.33;;;2.53;;
15567;SDS011;7885;42.596;23.044;2022-12-01T11:10:19;3.07;;;2.70;;
15567;SDS011;7885;42.596;23.044;2022-12-01T11:12:51;3.80;;;2.80;;
15567;SDS011;7885;42.596;23.044;2022-12-01T11:15:21;5.63;;;3.33;;
15567;SDS011;7885;42.596;23.044;2022-12-01T11:21:13;7.50;;;3.63;;
15567;SDS011;7885;42.596;23.044;2022-12-01T11:23:43;7.07;;;3.10;;
15567;SDS011;7885;42.596;23.044;2022-12-01T11:26:14;5.40;;;3.07;;
15567;SDS011;7885;42.596;23.044;2022-12-01T11:28:49;4.03;;;2.40;;
15567;SDS011;7885;42.596;23.044;2022-12-01T11:31:18;2.97;;;2.63;;
15567;SDS011;7885;42.596;23.044;2022-12-01T11:33:48;2.27;;;2.07;;
15567;SDS011;7885;42.596;23.044;2022-12-01T11:36:20;2.73;;;2.13;;
15567;SDS011;7885;42.596;23.044;2022-12-01T11:38:53;2.90;;;2.30;;
15567;SDS011;7885;42.596;23.044;2022-12-01T11:41:32;3.90;;;2.87;;
15567;SDS011;7885;42.596;23.044;2022-12-01T11:47:25;20.17;;;14.33;;
15567;SDS011;7885;42.596;23.044;2022-12-01T11:49:53;20.87;;;11.67;;
15567;SDS011;7885;42.596;23.044;2022-12-01T11:52:23;21.87;;;14.93;;
15567;SDS011;7885;42.596;23.044;2022-12-01T11:54:57;21.00;;;12.93;;
15567;SDS011;7885;42.596;23.044;2022-12-01T11:57:28;20.50;;;13.03;;
15567;SDS011;7885;42.596;23.044;2022-12-01T11:59:56;14.27;;;10.67;;
15567;SDS011;7885;42.596;23.044;2022-12-01T12:02:26;8.67;;;6.97;;
15567;SDS011;7885;42.596;23.044;2022-12-01T12:05:05;8.20;;;5.90;;
15567;SDS011;7885;42.596;23.044;2022-12-01T12:07:53;24.67;;;18.23;;
15567;SDS011;7885;42.596;23.044;2022-12-01T12:10:34;61.40;;;35.60;;
15567;SDS011;7885;42.596;23.044;2022-12-01T12:13:15;59.10;;;32.63;;
15567;SDS011;7885;42.596;23.044;2022-12-01T12:16:02;17.53;;;11.17;;
15567;SDS011;7885;42.596;23.044;2022-12-01T12:18:41;4.97;;;3.93;;
15567;SDS011;7885;42.596;23.044;2022-12-01T12:21:20;3.60;;;2.80;;
15567;SDS011;7885;42.596;23.044;2022-12-01T12:27:19;3.43;;;3.00;;
15567;SDS011;7885;42.596;23.044;2022-12-01T12:30:00;3.67;;;3.10;;
15567;SDS011;7885;42.596;23.044;2022-12-01T12:32:38;5.10;;;3.80;;
15567;SDS011;7885;42.596;23.044;2022-12-01T12:35:23;3.70;;;2.67;;
15567;SDS011;7885;42.596;23.044;2022-12-01T12:38:00;6.27;;;3.80;;
15567;SDS011;7885;42.596;23.044;2022-12-01T12:40:40;14.43;;;10.90;;
15567;SDS011;7885;42.596;23.044;2022-12-01T12:43:20;3.57;;;3.20;;
15567;SDS011;7885;42.596;23.044;2022-12-01T12:52:36;5.23;;;4.27;;
15567;SDS011;7885;42.596;23.044;2022-12-01T12:55:10;7.30;;;5.50;;
15567;SDS011;7885;42.596;23.044;2022-12-01T12:57:43;8.77;;;6.83;;
15567;SDS011;7885;42.596;23.044;2022-12-01T13:00:15;7.33;;;5.43;;
15567;SDS011;7885;42.596;23.044;2022-12-01T13:02:44;3.77;;;3.10;;
15567;SDS011;7885;42.596;23.044;2022-12-01T13:05:15;3.63;;;2.80;;
15567;SDS011;7885;42.596;23.044;2022-12-01T13:07:48;4.83;;;3.90;;
15567;SDS011;7885;42.596;23.044;2022-12-01T13:10:20;4.53;;;3.17;;
15567;SDS011;7885;42.596;23.044;2022-12-01T13:12:55;3.50;;;3.20;;
15567;SDS011;7885;42.596;23.044;2022-12-01T13:15:25;4.57;;;4.17;;
15567;SDS011;7885;42.596;23.044;2022-12-01T13:17:54;5.60;;;5.00;;
15567;SDS011;7885;42.596;23.044;2022-12-01T13:20:27;4.27;;;3.87;;
15567;SDS011;7885;42.596;23.044;2022-12-01T13:22:58;5.80;;;5.20;;
15567;SDS011;7885;42.596;23.044;2022-12-01T13:25:28;6.30;;;5.53;;
15567;SDS011;7885;42.596;23.044;2022-12-01T13:27:58;5.70;;;4.90;;
15567;SDS011;7885;42.596;23.044;2022-12-01T13:30:28;5.20;;;4.17;;
15567;SDS011;7885;42.596;23.044;2022-12-01T13:32:59;7.10;;;4.60;;
15567;SDS011;7885;42.596;23.044;2022-12-01T13:35:28;5.87;;;4.87;;
15567;SDS011;7885;42.596;23.044;2022-12-01T13:41:07;12.93;;;9.43;;
15567;SDS011;7885;42.596;23.044;2022-12-01T13:43:36;6.27;;;4.80;;
15567;SDS011;7885;42.596;23.044;2022-12-01T13:46:19;5.93;;;4.23;;
15567;SDS011;7885;42.596;23.044;2022-12-01T13:52:28;4.50;;;3.43;;
15567;SDS011;7885;42.596;23.044;2022-12-01T13:55:02;4.33;;;3.53;;
15567;SDS011;7885;42.596;23.044;2022-12-01T13:57:51;7.47;;;5.33;;
15567;SDS011;7885;42.596;23.044;2022-12-01T14:00:49;6.43;;;4.73;;
15567;SDS011;7885;42.596;23.044;2022-12-01T14:03:36;4.37;;;3.57;;
15567;SDS011;7885;42.596;23.044;2022-12-01T14:06:06;10.60;;;7.43;;
15567;SDS011;7885;42.596;23.044;2022-12-01T14:08:44;8.53;;;6.17;;
15567;SDS011;7885;42.596;23.044;2022-12-01T14:11:17;8.70;;;6.90;;
15567;SDS011;7885;42.596;23.044;2022-12-01T14:13:49;29.23;;;19.00;;
15567;SDS011;7885;42.596;23.044;2022-12-01T14:16:18;25.70;;;18.37;;
15567;SDS011;7885;42.596;23.044;2022-12-01T14:18:48;30.83;;;20.63;;
15567;SDS011;7885;42.596;23.044;2022-12-01T14:21:20;28.60;;;20.10;;
15567;SDS011;7885;42.596;23.044;2022-12-01T14:24:17;32.97;;;23.10;;
15567;SDS011;7885;42.596;23.044;2022-12-01T14:26:47;24.47;;;17.40;;
15567;SDS011;7885;42.596;23.044;2022-12-01T14:29:27;25.63;;;19.50;;
15567;SDS011;7885;42.596;23.044;2022-12-01T14:37:45;7.87;;;5.60;;
15567;SDS011;7885;42.596;23.044;2022-12-01T14:40:18;13.50;;;9.50;;
15567;SDS011;7885;42.596;23.044;2022-12-01T14:42:50;14.60;;;11.17;;
15567;SDS011;7885;42.596;23.044;2022-12-01T14:45:40;19.67;;;14.33;;
15567;SDS011;7885;42.596;23.044;2022-12-01T14:48:11;23.93;;;15.20;;
15567;SDS011;7885;42.596;23.044;2022-12-01T14:50:45;21.03;;;14.43;;
15567;SDS011;7885;42.596;23.044;2022-12-01T14:53:16;18.97;;;14.47;;
15567;SDS011;7885;42.596;23.044;2022-12-01T14:55:50;20.07;;;13.70;;
15567;SDS011;7885;42.596;23.044;2022-12-01T14:58:22;25.70;;;16.53;;
15567;SDS011;7885;42.596;23.044;2022-12-01T15:00:54;24.77;;;17.50;;
15567;SDS011;7885;42.596;23.044;2022-12-01T15:03:25;21.40;;;14.57;;
15567;SDS011;7885;42.596;23.044;2022-12-01T15:05:55;28.73;;;19.87;;
15567;SDS011;7885;42.596;23.044;2022-12-01T15:08:23;27.37;;;19.27;;
15567;SDS011;7885;42.596;23.044;2022-12-01T15:10:52;40.53;;;30.67;;
15567;SDS011;7885;42.596;23.044;2022-12-01T15:13:22;27.30;;;20.27;;
15567;SDS011;7885;42.596;23.044;2022-12-01T15:25:58;15.63;;;14.00;;
15567;SDS011;7885;42.596;23.044;2022-12-01T15:28:28;25.07;;;20.20;;
15567;SDS011;7885;42.596;23.044;2022-12-01T15:30:56;37.93;;;30.20;;
15567;SDS011;7885;42.596;23.044;2022-12-01T15:33:26;28.07;;;22.10;;
15567;SDS011;7885;42.596;23.044;2022-12-01T15:35:56;34.73;;;25.83;;
15567;SDS011;7885;42.596;23.044;2022-12-01T15:38:25;32.27;;;23.80;;
15567;SDS011;7885;42.596;23.044;2022-12-01T15:40:55;118.20;;;87.27;;
15567;SDS011;7885;42.596;23.044;2022-12-01T15:53:31;20.43;;;14.97;;
15567;SDS011;7885;42.596;23.044;2022-12-01T15:56:00;9.20;;;7.67;;
15567;SDS011;7885;42.596;23.044;2022-12-01T15:58:30;5.27;;;4.63;;
15567;SDS011;7885;42.596;23.044;2022-12-01T16:01:01;8.00;;;7.00;;
15567;SDS011;7885;42.596;23.044;2022-12-01T16:06:23;10.87;;;8.57;;
15567;SDS011;7885;42.596;23.044;2022-12-01T16:08:55;8.47;;;7.00;;
15567;SDS011;7885;42.596;23.044;2022-12-01T16:11:24;5.80;;;5.20;;
15567;SDS011;7885;42.596;23.044;2022-12-01T16:13:59;5.70;;;5.10;;
15567;SDS011;7885;42.596;23.044;2022-12-01T16:16:34;5.17;;;4.67;;
15567;SDS011;7885;42.596;23.044;2022-12-01T16:19:20;5.33;;;4.40;;
15567;SDS011;7885;42.596;23.044;2022-12-01T16:25:43;6.00;;;4.97;;
15567;SDS011;7885;42.596;23.044;2022-12-01T16:28:17;7.13;;;6.43;;
15567;SDS011;7885;42.596;23.044;2022-12-01T16:30:46;8.43;;;7.47;;
15567;SDS011;7885;42.596;23.044;2022-12-01T16:33:14;9.13;;;8.13;;
15567;SDS011;7885;42.596;23.044;2022-12-01T16:42:04;8.60;;;7.10;;
15567;SDS011;7885;42.596;23.044;2022-12-01T16:44:31;7.10;;;6.40;;